sensor_id;sensor_type;location;lat;lon;timestamp;P1;durP1;ratioP1;P2;durP2;ratioP2
37655;SDS011;23498;50.958;3.124;2023-03-23T00:00:51;4.28;;;2.45;;
37655;SDS011;23498;50.958;3.124;2023-03-23T00:03:19;4.35;;;2.38;;
37655;SDS011;23498;50.958;3.124;2023-03-23T00:05:46;4.15;;;2.78;;
37655;SDS011;23498;50.958;3.124;2023-03-23T00:08:16;5.10;;;2.90;;
37655;SDS011;23498;50.958;3.124;2023-03-23T00:10:42;4.57;;;2.28;;
37655;SDS011;23498;50.958;3.124;2023-03-23T00:13:08;4.68;;;2.60;;
37655;SDS011;23498;50.958;3.124;2023-03-23T00:15:36;5.70;;;2.67;;
37655;SDS011;23498;50.958;3.124;2023-03-23T00:18:06;5.72;;;2.47;;
37655;SDS011;23498;50.958;3.124;2023-03-23T00:20:32;5.97;;;2.33;;
37655;SDS011;23498;50.958;3.124;2023-03-23T00:23:06;4.43;;;2.85;;
37655;SDS011;23498;50.958;3.124;2023-03-23T00:25:32;5.55;;;2.65;;
37655;SDS011;23498;50.958;3.124;2023-03-23T00:27:58;6.38;;;2.50;;
37655;SDS011;23498;50.958;3.124;2023-03-23T00:30:25;4.38;;;2.35;;
37655;SDS011;23498;50.958;3.124;2023-03-23T00:32:51;3.83;;;2.40;;
37655;SDS011;23498;50.958;3.124;2023-03-23T00:35:17;6.25;;;2.40;;
37655;SDS011;23498;50.958;3.124;2023-03-23T00:37:44;4.72;;;2.10;;
37655;SDS011;23498;50.958;3.124;2023-03-23T00:40:10;4.00;;;2.30;;
37655;SDS011;23498;50.958;3.124;2023-03-23T00:42:37;4.75;;;2.25;;
37655;SDS011;23498;50.958;3.124;2023-03-23T00:45:04;3.10;;;2.03;;
37655;SDS011;23498;50.958;3.124;2023-03-23T00:47:36;5.45;;;2.40;;
37655;SDS011;23498;50.958;3.124;2023-03-23T00:50:02;5.32;;;2.08;;
37655;SDS011;23498;50.958;3.124;2023-03-23T00:52:30;5.22;;;2.40;;
37655;SDS011;23498;50.958;3.124;2023-03-23T00:54:56;3.95;;;2.00;;
37655;SDS011;23498;50.958;3.124;2023-03-23T00:57:22;5.03;;;2.10;;
37655;SDS011;23498;50.958;3.124;2023-03-23T00:59:49;4.25;;;2.22;;
37655;SDS011;23498;50.958;3.124;2023-03-23T01:02:15;3.88;;;2.20;;
37655;SDS011;23498;50.958;3.124;2023-03-23T01:04:43;3.25;;;1.90;;
37655;SDS011;23498;50.958;3.124;2023-03-23T01:07:17;4.47;;;2.15;;
37655;SDS011;23498;50.958;3.124;2023-03-23T01:09:45;3.70;;;2.08;;
37655;SDS011;23498;50.958;3.124;2023-03-23T01:12:11;4.13;;;2.00;;
37655;SDS011;23498;50.958;3.124;2023-03-23T01:14:38;3.88;;;1.98;;
37655;SDS011;23498;50.958;3.124;2023-03-23T01:17:04;4.50;;;2.00;;
37655;SDS011;23498;50.958;3.124;2023-03-23T01:19:29;3.90;;;2.00;;
37655;SDS011;23498;50.958;3.124;2023-03-23T01:21:55;3.30;;;1.83;;
37655;SDS011;23498;50.958;3.124;2023-03-23T01:24:21;2.85;;;1.88;;
37655;SDS011;23498;50.958;3.124;2023-03-23T01:26:47;3.10;;;1.80;;
37655;SDS011;23498;50.958;3.124;2023-03-23T01:29:13;3.22;;;1.83;;
37655;SDS011;23498;50.958;3.124;2023-03-23T01:31:40;3.20;;;1.67;;
37655;SDS011;23498;50.958;3.124;2023-03-23T01:34:07;4.10;;;1.63;;
37655;SDS011;23498;50.958;3.124;2023-03-23T01:36:35;3.88;;;1.85;;
37655;SDS011;23498;50.958;3.124;2023-03-23T01:39:02;3.10;;;1.73;;
37655;SDS011;23498;50.958;3.124;2023-03-23T01:41:29;6.60;;;1.98;;
37655;SDS011;23498;50.958;3.124;2023-03-23T01:46:31;3.47;;;1.73;;
37655;SDS011;23498;50.958;3.124;2023-03-23T01:48:59;3.30;;;1.42;;
37655;SDS011;23498;50.958;3.124;2023-03-23T01:51:26;4.55;;;1.80;;
37655;SDS011;23498;50.958;3.124;2023-03-23T01:56:19;2.53;;;1.23;;
37655;SDS011;23498;50.958;3.124;2023-03-23T01:58:49;4.30;;;1.45;;
37655;SDS011;23498;50.958;3.124;2023-03-23T02:01:16;4.88;;;1.55;;
37655;SDS011;23498;50.958;3.124;2023-03-23T02:03:43;3.28;;;1.52;;
37655;SDS011;23498;50.958;3.124;2023-03-23T02:06:10;3.10;;;1.80;;
37655;SDS011;23498;50.958;3.124;2023-03-23T02:08:36;5.28;;;1.42;;
37655;SDS011;23498;50.958;3.124;2023-03-23T02:11:08;4.88;;;1.40;;
37655;SDS011;23498;50.958;3.124;2023-03-23T02:23:31;6.18;;;1.70;;
37655;SDS011;23498;50.958;3.124;2023-03-23T02:26:03;5.70;;;1.45;;
37655;SDS011;23498;50.958;3.124;2023-03-23T02:33:35;5.63;;;1.70;;
37655;SDS011;23498;50.958;3.124;2023-03-23T02:41:09;6.10;;;1.67;;
37655;SDS011;23498;50.958;3.124;2023-03-23T02:43:38;5.30;;;1.77;;
37655;SDS011;23498;50.958;3.124;2023-03-23T02:46:06;6.28;;;1.70;;
37655;SDS011;23498;50.958;3.124;2023-03-23T02:48:33;7.97;;;1.95;;
37655;SDS011;23498;50.958;3.124;2023-03-23T02:50:59;5.55;;;1.60;;
37655;SDS011;23498;50.958;3.124;2023-03-23T02:53:27;6.60;;;1.83;;
37655;SDS011;23498;50.958;3.124;2023-03-23T02:55:54;5.20;;;1.60;;
37655;SDS011;23498;50.958;3.124;2023-03-23T02:58:21;4.68;;;1.55;;
37655;SDS011;23498;50.958;3.124;2023-03-23T03:00:50;8.88;;;2.15;;
37655;SDS011;23498;50.958;3.124;2023-03-23T03:03:17;5.68;;;1.80;;
37655;SDS011;23498;50.958;3.124;2023-03-23T03:06:07;7.13;;;1.60;;
37655;SDS011;23498;50.958;3.124;2023-03-23T03:08:52;7.95;;;1.70;;
37655;SDS011;23498;50.958;3.124;2023-03-23T03:11:20;7.43;;;1.83;;
37655;SDS011;23498;50.958;3.124;2023-03-23T03:14:04;9.35;;;2.05;;
37655;SDS011;23498;50.958;3.124;2023-03-23T03:16:32;7.57;;;2.17;;
37655;SDS011;23498;50.958;3.124;2023-03-23T03:19:08;8.13;;;1.85;;
37655;SDS011;23498;50.958;3.124;2023-03-23T03:21:37;7.65;;;2.38;;
37655;SDS011;23498;50.958;3.124;2023-03-23T03:24:04;8.23;;;2.05;;
37655;SDS011;23498;50.958;3.124;2023-03-23T03:26:36;8.48;;;1.83;;
37655;SDS011;23498;50.958;3.124;2023-03-23T03:29:02;6.05;;;1.63;;
37655;SDS011;23498;50.958;3.124;2023-03-23T03:31:32;6.32;;;1.63;;
37655;SDS011;23498;50.958;3.124;2023-03-23T03:33:59;6.85;;;1.95;;
37655;SDS011;23498;50.958;3.124;2023-03-23T03:36:29;6.10;;;1.40;;
37655;SDS011;23498;50.958;3.124;2023-03-23T03:39:06;9.32;;;2.08;;
37655;SDS011;23498;50.958;3.124;2023-03-23T03:41:36;6.22;;;1.70;;
37655;SDS011;23498;50.958;3.124;2023-03-23T03:44:03;6.57;;;1.52;;
37655;SDS011;23498;50.958;3.124;2023-03-23T03:46:30;6.18;;;1.58;;
37655;SDS011;23498;50.958;3.124;2023-03-23T03:48:59;9.43;;;2.13;;
37655;SDS011;23498;50.958;3.124;2023-03-23T03:51:26;6.53;;;2.05;;
37655;SDS011;23498;50.958;3.124;2023-03-23T03:53:52;6.85;;;2.08;;
37655;SDS011;23498;50.958;3.124;2023-03-23T03:56:18;8.38;;;1.80;;
37655;SDS011;23498;50.958;3.124;2023-03-23T03:58:47;7.68;;;1.92;;
37655;SDS011;23498;50.958;3.124;2023-03-23T04:01:13;6.32;;;2.00;;
37655;SDS011;23498;50.958;3.124;2023-03-23T04:03:40;9.40;;;1.80;;
37655;SDS011;23498;50.958;3.124;2023-03-23T04:06:06;9.10;;;2.60;;
37655;SDS011;23498;50.958;3.124;2023-03-23T04:08:33;10.75;;;2.28;;
37655;SDS011;23498;50.958;3.124;2023-03-23T04:11:00;6.45;;;1.88;;
37655;SDS011;23498;50.958;3.124;2023-03-23T04:13:26;10.77;;;2.40;;
37655;SDS011;23498;50.958;3.124;2023-03-23T04:15:52;12.35;;;2.63;;
37655;SDS011;23498;50.958;3.124;2023-03-23T04:18:18;13.57;;;2.30;;
37655;SDS011;23498;50.958;3.124;2023-03-23T04:20:45;6.88;;;2.42;;
37655;SDS011;23498;50.958;3.124;2023-03-23T04:23:15;11.10;;;2.35;;
37655;SDS011;23498;50.958;3.124;2023-03-23T04:25:46;9.68;;;2.28;;
37655;SDS011;23498;50.958;3.124;2023-03-23T04:28:13;10.65;;;2.42;;
37655;SDS011;23498;50.958;3.124;2023-03-23T04:30:41;8.52;;;2.03;;
37655;SDS011;23498;50.958;3.124;2023-03-23T04:33:08;9.88;;;2.33;;
37655;SDS011;23498;50.958;3.124;2023-03-23T04:35:39;8.38;;;2.00;;
37655;SDS011;23498;50.958;3.124;2023-03-23T04:38:05;9.13;;;2.45;;
37655;SDS011;23498;50.958;3.124;2023-03-23T04:40:32;10.95;;;2.60;;
37655;SDS011;23498;50.958;3.124;2023-03-23T04:43:00;8.70;;;2.72;;
37655;SDS011;23498;50.958;3.124;2023-03-23T04:45:30;8.27;;;2.08;;
37655;SDS011;23498;50.958;3.124;2023-03-23T04:47:56;11.00;;;2.15;;
37655;SDS011;23498;50.958;3.124;2023-03-23T04:50:23;13.20;;;2.78;;
37655;SDS011;23498;50.958;3.124;2023-03-23T04:52:50;8.98;;;2.45;;
37655;SDS011;23498;50.958;3.124;2023-03-23T04:55:16;8.38;;;2.60;;
37655;SDS011;23498;50.958;3.124;2023-03-23T04:57:44;13.18;;;2.60;;
37655;SDS011;23498;50.958;3.124;2023-03-23T05:00:10;9.05;;;2.40;;
37655;SDS011;23498;50.958;3.124;2023-03-23T05:02:39;10.25;;;2.25;;
37655;SDS011;23498;50.958;3.124;2023-03-23T05:05:06;10.18;;;2.63;;
37655;SDS011;23498;50.958;3.124;2023-03-23T05:07:32;13.65;;;3.03;;
37655;SDS011;23498;50.958;3.124;2023-03-23T05:09:58;11.70;;;3.30;;
37655;SDS011;23498;50.958;3.124;2023-03-23T05:12:24;12.02;;;2.13;;
37655;SDS011;23498;50.958;3.124;2023-03-23T05:14:50;11.23;;;3.05;;
37655;SDS011;23498;50.958;3.124;2023-03-23T05:17:16;8.80;;;2.20;;
37655;SDS011;23498;50.958;3.124;2023-03-23T05:19:43;7.10;;;2.05;;
37655;SDS011;23498;50.958;3.124;2023-03-23T05:22:12;10.82;;;2.17;;
37655;SDS011;23498;50.958;3.124;2023-03-23T05:24:39;8.10;;;1.90;;
37655;SDS011;23498;50.958;3.124;2023-03-23T05:27:05;9.32;;;2.00;;
37655;SDS011;23498;50.958;3.124;2023-03-23T05:29:33;7.25;;;1.75;;
37655;SDS011;23498;50.958;3.124;2023-03-23T05:32:01;7.65;;;1.60;;
37655;SDS011;23498;50.958;3.124;2023-03-23T05:34:27;5.70;;;1.88;;
37655;SDS011;23498;50.958;3.124;2023-03-23T05:36:54;8.60;;;1.77;;
37655;SDS011;23498;50.958;3.124;2023-03-23T05:39:22;5.95;;;1.85;;
37655;SDS011;23498;50.958;3.124;2023-03-23T05:41:48;8.45;;;1.75;;
37655;SDS011;23498;50.958;3.124;2023-03-23T05:44:14;5.75;;;1.70;;
37655;SDS011;23498;50.958;3.124;2023-03-23T05:46:40;8.75;;;1.67;;
37655;SDS011;23498;50.958;3.124;2023-03-23T05:49:06;5.93;;;1.90;;
37655;SDS011;23498;50.958;3.124;2023-03-23T05:51:33;4.80;;;1.30;;
37655;SDS011;23498;50.958;3.124;2023-03-23T05:54:00;7.90;;;1.50;;
37655;SDS011;23498;50.958;3.124;2023-03-23T05:56:26;7.40;;;1.98;;
37655;SDS011;23498;50.958;3.124;2023-03-23T05:58:53;9.70;;;1.60;;
37655;SDS011;23498;50.958;3.124;2023-03-23T06:01:20;6.57;;;1.50;;
37655;SDS011;23498;50.958;3.124;2023-03-23T06:03:46;8.25;;;1.80;;
37655;SDS011;23498;50.958;3.124;2023-03-23T06:06:14;7.60;;;1.58;;
37655;SDS011;23498;50.958;3.124;2023-03-23T06:08:40;7.53;;;2.28;;
37655;SDS011;23498;50.958;3.124;2023-03-23T06:11:06;7.97;;;1.98;;
37655;SDS011;23498;50.958;3.124;2023-03-23T06:13:32;6.60;;;1.70;;
37655;SDS011;23498;50.958;3.124;2023-03-23T06:15:58;6.60;;;1.63;;
37655;SDS011;23498;50.958;3.124;2023-03-23T06:18:24;7.97;;;1.98;;
37655;SDS011;23498;50.958;3.124;2023-03-23T06:20:51;7.10;;;1.65;;
37655;SDS011;23498;50.958;3.124;2023-03-23T06:23:17;8.00;;;1.77;;
37655;SDS011;23498;50.958;3.124;2023-03-23T06:25:43;7.35;;;1.45;;
37655;SDS011;23498;50.958;3.124;2023-03-23T06:28:10;5.95;;;1.73;;
37655;SDS011;23498;50.958;3.124;2023-03-23T06:30:36;6.65;;;1.42;;
37655;SDS011;23498;50.958;3.124;2023-03-23T06:33:02;6.47;;;1.60;;
37655;SDS011;23498;50.958;3.124;2023-03-23T06:35:30;7.07;;;1.25;;
37655;SDS011;23498;50.958;3.124;2023-03-23T06:37:57;5.95;;;1.50;;
37655;SDS011;23498;50.958;3.124;2023-03-23T06:40:26;9.70;;;1.90;;
37655;SDS011;23498;50.958;3.124;2023-03-23T06:42:53;9.05;;;2.28;;
37655;SDS011;23498;50.958;3.124;2023-03-23T06:45:19;7.47;;;1.48;;
37655;SDS011;23498;50.958;3.124;2023-03-23T06:47:45;4.72;;;1.27;;
37655;SDS011;23498;50.958;3.124;2023-03-23T06:50:15;7.20;;;1.55;;
37655;SDS011;23498;50.958;3.124;2023-03-23T06:52:45;6.45;;;1.52;;
37655;SDS011;23498;50.958;3.124;2023-03-23T06:55:12;4.65;;;1.55;;
37655;SDS011;23498;50.958;3.124;2023-03-23T06:57:38;5.70;;;1.30;;
37655;SDS011;23498;50.958;3.124;2023-03-23T07:00:04;7.45;;;1.52;;
37655;SDS011;23498;50.958;3.124;2023-03-23T07:02:32;5.03;;;1.60;;
37655;SDS011;23498;50.958;3.124;2023-03-23T07:05:02;6.60;;;1.83;;
37655;SDS011;23498;50.958;3.124;2023-03-23T07:07:28;6.78;;;1.80;;
37655;SDS011;23498;50.958;3.124;2023-03-23T07:09:55;7.22;;;1.48;;
37655;SDS011;23498;50.958;3.124;2023-03-23T07:12:21;3.75;;;1.20;;
37655;SDS011;23498;50.958;3.124;2023-03-23T07:14:47;6.95;;;1.30;;
37655;SDS011;23498;50.958;3.124;2023-03-23T07:17:13;7.78;;;1.52;;
37655;SDS011;23498;50.958;3.124;2023-03-23T07:19:40;7.70;;;1.55;;
37655;SDS011;23498;50.958;3.124;2023-03-23T07:22:06;7.22;;;1.50;;
37655;SDS011;23498;50.958;3.124;2023-03-23T07:24:33;9.60;;;1.60;;
37655;SDS011;23498;50.958;3.124;2023-03-23T07:26:59;7.95;;;1.50;;
37655;SDS011;23498;50.958;3.124;2023-03-23T07:29:26;8.15;;;1.67;;
37655;SDS011;23498;50.958;3.124;2023-03-23T07:31:52;5.32;;;1.33;;
37655;SDS011;23498;50.958;3.124;2023-03-23T07:34:19;5.95;;;1.63;;
37655;SDS011;23498;50.958;3.124;2023-03-23T07:36:45;7.53;;;1.60;;
37655;SDS011;23498;50.958;3.124;2023-03-23T07:39:12;8.88;;;2.22;;
37655;SDS011;23498;50.958;3.124;2023-03-23T07:41:38;6.55;;;1.70;;
37655;SDS011;23498;50.958;3.124;2023-03-23T07:44:04;6.15;;;1.60;;
37655;SDS011;23498;50.958;3.124;2023-03-23T07:46:31;8.98;;;2.40;;
37655;SDS011;23498;50.958;3.124;2023-03-23T07:49:01;8.85;;;1.60;;
37655;SDS011;23498;50.958;3.124;2023-03-23T07:51:30;6.20;;;1.60;;
37655;SDS011;23498;50.958;3.124;2023-03-23T07:53:56;7.38;;;1.48;;
37655;SDS011;23498;50.958;3.124;2023-03-23T07:56:22;6.18;;;1.67;;
37655;SDS011;23498;50.958;3.124;2023-03-23T07:58:48;10.30;;;1.77;;
37655;SDS011;23498;50.958;3.124;2023-03-23T08:01:15;9.90;;;1.73;;
37655;SDS011;23498;50.958;3.124;2023-03-23T08:03:41;8.88;;;1.80;;
37655;SDS011;23498;50.958;3.124;2023-03-23T08:06:07;6.47;;;1.70;;
37655;SDS011;23498;50.958;3.124;2023-03-23T08:08:34;7.60;;;1.80;;
37655;SDS011;23498;50.958;3.124;2023-03-23T08:11:02;10.27;;;2.58;;
37655;SDS011;23498;50.958;3.124;2023-03-23T08:13:28;5.30;;;1.48;;
37655;SDS011;23498;50.958;3.124;2023-03-23T08:15:54;6.57;;;1.58;;
37655;SDS011;23498;50.958;3.124;2023-03-23T08:18:21;7.72;;;1.80;;
37655;SDS011;23498;50.958;3.124;2023-03-23T08:20:47;9.85;;;1.88;;
37655;SDS011;23498;50.958;3.124;2023-03-23T08:23:14;7.88;;;1.63;;
37655;SDS011;23498;50.958;3.124;2023-03-23T08:25:41;6.47;;;1.70;;
37655;SDS011;23498;50.958;3.124;2023-03-23T08:28:08;8.38;;;1.70;;
37655;SDS011;23498;50.958;3.124;2023-03-23T08:30:34;6.30;;;1.38;;
37655;SDS011;23498;50.958;3.124;2023-03-23T08:33:02;9.07;;;1.67;;
37655;SDS011;23498;50.958;3.124;2023-03-23T08:35:29;5.60;;;1.63;;
37655;SDS011;23498;50.958;3.124;2023-03-23T08:37:56;7.00;;;1.33;;
37655;SDS011;23498;50.958;3.124;2023-03-23T08:40:22;6.70;;;1.52;;
37655;SDS011;23498;50.958;3.124;2023-03-23T08:42:49;6.80;;;1.25;;
37655;SDS011;23498;50.958;3.124;2023-03-23T08:45:17;4.22;;;1.30;;
37655;SDS011;23498;50.958;3.124;2023-03-23T08:47:43;8.10;;;1.80;;
37655;SDS011;23498;50.958;3.124;2023-03-23T08:50:11;5.55;;;1.40;;
37655;SDS011;23498;50.958;3.124;2023-03-23T08:52:37;7.80;;;1.30;;
37655;SDS011;23498;50.958;3.124;2023-03-23T08:55:03;4.28;;;1.33;;
37655;SDS011;23498;50.958;3.124;2023-03-23T08:57:30;8.13;;;1.50;;
37655;SDS011;23498;50.958;3.124;2023-03-23T08:59:56;7.85;;;2.00;;
37655;SDS011;23498;50.958;3.124;2023-03-23T09:05:04;6.13;;;1.40;;
37655;SDS011;23498;50.958;3.124;2023-03-23T09:07:30;5.95;;;1.88;;
37655;SDS011;23498;50.958;3.124;2023-03-23T09:09:56;8.85;;;1.80;;
37655;SDS011;23498;50.958;3.124;2023-03-23T09:12:22;4.85;;;1.50;;
37655;SDS011;23498;50.958;3.124;2023-03-23T09:14:48;6.60;;;2.22;;
37655;SDS011;23498;50.958;3.124;2023-03-23T09:17:14;5.55;;;1.58;;
37655;SDS011;23498;50.958;3.124;2023-03-23T09:19:40;6.90;;;1.55;;
37655;SDS011;23498;50.958;3.124;2023-03-23T09:22:06;7.18;;;2.05;;
37655;SDS011;23498;50.958;3.124;2023-03-23T09:24:33;6.78;;;1.83;;
37655;SDS011;23498;50.958;3.124;2023-03-23T09:27:00;7.32;;;1.90;;
37655;SDS011;23498;50.958;3.124;2023-03-23T09:29:26;9.35;;;1.83;;
37655;SDS011;23498;50.958;3.124;2023-03-23T09:31:53;11.32;;;2.20;;
37655;SDS011;23498;50.958;3.124;2023-03-23T09:34:20;8.30;;;1.73;;
37655;SDS011;23498;50.958;3.124;2023-03-23T09:36:47;8.77;;;1.83;;
37655;SDS011;23498;50.958;3.124;2023-03-23T09:39:13;7.68;;;1.83;;
37655;SDS011;23498;50.958;3.124;2023-03-23T09:44:36;8.00;;;2.00;;
37655;SDS011;23498;50.958;3.124;2023-03-23T09:49:43;8.13;;;2.58;;
37655;SDS011;23498;50.958;3.124;2023-03-23T09:54:40;9.60;;;2.20;;
37655;SDS011;23498;50.958;3.124;2023-03-23T09:57:13;8.43;;;1.95;;
37655;SDS011;23498;50.958;3.124;2023-03-23T09:59:53;9.35;;;2.17;;
37655;SDS011;23498;50.958;3.124;2023-03-23T10:05:22;8.60;;;2.42;;
37655;SDS011;23498;50.958;3.124;2023-03-23T10:07:48;10.75;;;2.13;;
37655;SDS011;23498;50.958;3.124;2023-03-23T10:10:15;10.45;;;2.00;;
37655;SDS011;23498;50.958;3.124;2023-03-23T10:12:47;7.88;;;2.13;;
37655;SDS011;23498;50.958;3.124;2023-03-23T10:15:22;8.20;;;2.10;;
37655;SDS011;23498;50.958;3.124;2023-03-23T10:17:55;11.05;;;2.30;;
37655;SDS011;23498;50.958;3.124;2023-03-23T10:20:35;10.48;;;1.92;;
37655;SDS011;23498;50.958;3.124;2023-03-23T10:23:08;9.27;;;2.00;;
37655;SDS011;23498;50.958;3.124;2023-03-23T10:25:36;8.57;;;2.58;;
37655;SDS011;23498;50.958;3.124;2023-03-23T10:28:19;9.93;;;2.40;;
37655;SDS011;23498;50.958;3.124;2023-03-23T10:36:05;11.02;;;2.50;;
37655;SDS011;23498;50.958;3.124;2023-03-23T10:38:44;10.90;;;2.40;;
37655;SDS011;23498;50.958;3.124;2023-03-23T10:41:12;9.30;;;2.40;;
37655;SDS011;23498;50.958;3.124;2023-03-23T10:43:39;9.85;;;2.60;;
37655;SDS011;23498;50.958;3.124;2023-03-23T10:46:13;10.27;;;2.60;;
37655;SDS011;23498;50.958;3.124;2023-03-23T10:48:41;11.55;;;2.92;;
37655;SDS011;23498;50.958;3.124;2023-03-23T10:51:10;8.48;;;2.05;;
37655;SDS011;23498;50.958;3.124;2023-03-23T10:53:39;8.55;;;2.15;;
37655;SDS011;23498;50.958;3.124;2023-03-23T10:56:19;9.70;;;2.67;;
37655;SDS011;23498;50.958;3.124;2023-03-23T10:58:47;11.93;;;2.70;;
37655;SDS011;23498;50.958;3.124;2023-03-23T11:01:13;12.70;;;2.55;;
37655;SDS011;23498;50.958;3.124;2023-03-23T11:03:44;11.88;;;2.60;;
37655;SDS011;23498;50.958;3.124;2023-03-23T11:06:19;11.43;;;3.00;;
37655;SDS011;23498;50.958;3.124;2023-03-23T11:08:53;14.52;;;3.42;;
37655;SDS011;23498;50.958;3.124;2023-03-23T11:11:30;14.48;;;3.70;;
37655;SDS011;23498;50.958;3.124;2023-03-23T11:14:14;9.52;;;2.75;;
37655;SDS011;23498;50.958;3.124;2023-03-23T11:16:45;5.90;;;2.17;;
37655;SDS011;23498;50.958;3.124;2023-03-23T11:19:15;12.48;;;2.65;;
37655;SDS011;23498;50.958;3.124;2023-03-23T11:21:45;11.98;;;2.63;;
37655;SDS011;23498;50.958;3.124;2023-03-23T11:24:11;12.35;;;2.85;;
37655;SDS011;23498;50.958;3.124;2023-03-23T11:26:37;14.73;;;3.50;;
37655;SDS011;23498;50.958;3.124;2023-03-23T11:29:05;13.13;;;3.10;;
37655;SDS011;23498;50.958;3.124;2023-03-23T11:31:33;13.63;;;4.07;;
37655;SDS011;23498;50.958;3.124;2023-03-23T11:34:01;10.77;;;3.45;;
37655;SDS011;23498;50.958;3.124;2023-03-23T11:36:40;11.18;;;3.53;;
37655;SDS011;23498;50.958;3.124;2023-03-23T11:41:49;15.52;;;3.70;;
37655;SDS011;23498;50.958;3.124;2023-03-23T11:44:18;14.38;;;3.13;;
37655;SDS011;23498;50.958;3.124;2023-03-23T11:49:25;14.48;;;2.47;;
37655;SDS011;23498;50.958;3.124;2023-03-23T11:51:54;14.48;;;3.00;;
37655;SDS011;23498;50.958;3.124;2023-03-23T11:54:36;13.57;;;2.88;;
37655;SDS011;23498;50.958;3.124;2023-03-23T11:57:08;15.60;;;2.78;;
37655;SDS011;23498;50.958;3.124;2023-03-23T11:59:36;12.82;;;2.85;;
37655;SDS011;23498;50.958;3.124;2023-03-23T12:04:48;14.10;;;3.60;;
37655;SDS011;23498;50.958;3.124;2023-03-23T12:12:43;11.38;;;2.53;;
37655;SDS011;23498;50.958;3.124;2023-03-23T12:20:28;10.55;;;2.70;;
37655;SDS011;23498;50.958;3.124;2023-03-23T12:23:02;10.52;;;2.83;;
37655;SDS011;23498;50.958;3.124;2023-03-23T12:40:35;7.20;;;2.17;;
37655;SDS011;23498;50.958;3.124;2023-03-23T12:46:04;11.90;;;2.30;;
37655;SDS011;23498;50.958;3.124;2023-03-23T12:48:36;9.90;;;3.00;;
37655;SDS011;23498;50.958;3.124;2023-03-23T12:51:16;16.27;;;3.95;;
37655;SDS011;23498;50.958;3.124;2023-03-23T12:53:48;10.80;;;2.08;;
37655;SDS011;23498;50.958;3.124;2023-03-23T12:56:34;12.80;;;2.53;;
37655;SDS011;23498;50.958;3.124;2023-03-23T13:01:30;14.43;;;2.47;;
37655;SDS011;23498;50.958;3.124;2023-03-23T13:03:59;11.98;;;2.92;;
37655;SDS011;23498;50.958;3.124;2023-03-23T13:06:33;14.68;;;3.03;;
37655;SDS011;23498;50.958;3.124;2023-03-23T13:11:35;15.10;;;2.88;;
37655;SDS011;23498;50.958;3.124;2023-03-23T13:14:14;12.05;;;2.60;;
37655;SDS011;23498;50.958;3.124;2023-03-23T13:19:15;8.73;;;2.30;;
37655;SDS011;23498;50.958;3.124;2023-03-23T13:21:46;9.70;;;2.40;;
37655;SDS011;23498;50.958;3.124;2023-03-23T13:24:17;14.02;;;2.95;;
37655;SDS011;23498;50.958;3.124;2023-03-23T13:26:44;12.02;;;2.55;;
37655;SDS011;23498;50.958;3.124;2023-03-23T13:29:13;10.48;;;2.47;;
37655;SDS011;23498;50.958;3.124;2023-03-23T13:31:43;10.68;;;2.90;;
37655;SDS011;23498;50.958;3.124;2023-03-23T13:34:19;13.07;;;2.50;;
37655;SDS011;23498;50.958;3.124;2023-03-23T13:37:02;11.63;;;2.55;;
37655;SDS011;23498;50.958;3.124;2023-03-23T13:39:31;11.15;;;2.47;;
37655;SDS011;23498;50.958;3.124;2023-03-23T13:44:25;8.10;;;2.55;;
37655;SDS011;23498;50.958;3.124;2023-03-23T13:46:55;10.65;;;2.53;;
37655;SDS011;23498;50.958;3.124;2023-03-23T13:49:23;10.07;;;2.33;;
37655;SDS011;23498;50.958;3.124;2023-03-23T13:51:56;9.70;;;2.80;;
37655;SDS011;23498;50.958;3.124;2023-03-23T13:54:24;12.95;;;2.47;;
37655;SDS011;23498;50.958;3.124;2023-03-23T13:56:55;12.13;;;2.70;;
37655;SDS011;23498;50.958;3.124;2023-03-23T13:59:33;15.82;;;3.35;;
37655;SDS011;23498;50.958;3.124;2023-03-23T14:04:44;12.02;;;2.60;;
37655;SDS011;23498;50.958;3.124;2023-03-23T14:07:12;9.60;;;2.00;;
37655;SDS011;23498;50.958;3.124;2023-03-23T14:09:44;9.82;;;2.47;;
37655;SDS011;23498;50.958;3.124;2023-03-23T14:12:18;13.50;;;2.65;;
37655;SDS011;23498;50.958;3.124;2023-03-23T14:17:15;12.32;;;2.67;;
37655;SDS011;23498;50.958;3.124;2023-03-23T14:19:42;6.97;;;2.17;;
37655;SDS011;23498;50.958;3.124;2023-03-23T14:22:18;10.00;;;2.33;;
37655;SDS011;23498;50.958;3.124;2023-03-23T14:24:45;10.48;;;2.38;;
37655;SDS011;23498;50.958;3.124;2023-03-23T14:27:12;11.32;;;2.63;;
37655;SDS011;23498;50.958;3.124;2023-03-23T14:29:39;10.68;;;2.28;;
37655;SDS011;23498;50.958;3.124;2023-03-23T14:32:06;9.63;;;2.35;;
37655;SDS011;23498;50.958;3.124;2023-03-23T14:34:32;10.90;;;2.85;;
37655;SDS011;23498;50.958;3.124;2023-03-23T14:36:59;9.68;;;2.58;;
37655;SDS011;23498;50.958;3.124;2023-03-23T14:39:27;11.77;;;2.28;;
37655;SDS011;23498;50.958;3.124;2023-03-23T14:41:54;8.77;;;2.40;;
37655;SDS011;23498;50.958;3.124;2023-03-23T14:44:25;9.98;;;2.53;;
37655;SDS011;23498;50.958;3.124;2023-03-23T14:46:52;12.48;;;2.97;;
37655;SDS011;23498;50.958;3.124;2023-03-23T14:49:21;10.90;;;2.78;;
37655;SDS011;23498;50.958;3.124;2023-03-23T14:51:50;12.27;;;2.40;;
37655;SDS011;23498;50.958;3.124;2023-03-23T14:54:21;9.95;;;2.45;;
37655;SDS011;23498;50.958;3.124;2023-03-23T14:56:47;10.07;;;2.72;;
37655;SDS011;23498;50.958;3.124;2023-03-23T14:59:13;8.07;;;2.38;;
37655;SDS011;23498;50.958;3.124;2023-03-23T15:01:39;11.98;;;2.75;;
37655;SDS011;23498;50.958;3.124;2023-03-23T15:04:17;9.43;;;2.30;;
37655;SDS011;23498;50.958;3.124;2023-03-23T15:06:46;9.05;;;2.30;;
37655;SDS011;23498;50.958;3.124;2023-03-23T15:09:15;10.88;;;2.47;;
37655;SDS011;23498;50.958;3.124;2023-03-23T15:11:43;10.35;;;2.35;;
37655;SDS011;23498;50.958;3.124;2023-03-23T15:14:19;13.38;;;2.83;;
37655;SDS011;23498;50.958;3.124;2023-03-23T15:16:48;6.90;;;2.03;;
37655;SDS011;23498;50.958;3.124;2023-03-23T15:19:36;13.15;;;2.88;;
37655;SDS011;23498;50.958;3.124;2023-03-23T15:22:44;10.95;;;2.42;;
37655;SDS011;23498;50.958;3.124;2023-03-23T15:24:51;10.85;;;2.42;;
37655;SDS011;23498;50.958;3.124;2023-03-23T15:27:52;10.50;;;2.30;;
37655;SDS011;23498;50.958;3.124;2023-03-23T15:33:10;9.40;;;2.35;;
37655;SDS011;23498;50.958;3.124;2023-03-23T15:35:39;13.50;;;2.80;;
37655;SDS011;23498;50.958;3.124;2023-03-23T15:38:17;11.52;;;2.75;;
37655;SDS011;23498;50.958;3.124;2023-03-23T15:40:44;13.15;;;2.60;;
37655;SDS011;23498;50.958;3.124;2023-03-23T15:43:18;9.82;;;2.60;;
37655;SDS011;23498;50.958;3.124;2023-03-23T15:48:18;10.30;;;2.65;;
37655;SDS011;23498;50.958;3.124;2023-03-23T15:50:46;12.30;;;2.78;;
37655;SDS011;23498;50.958;3.124;2023-03-23T15:55:41;9.85;;;2.50;;
37655;SDS011;23498;50.958;3.124;2023-03-23T15:58:09;10.63;;;2.45;;
37655;SDS011;23498;50.958;3.124;2023-03-23T16:00:35;7.57;;;2.30;;
37655;SDS011;23498;50.958;3.124;2023-03-23T16:03:04;9.40;;;2.33;;
37655;SDS011;23498;50.958;3.124;2023-03-23T16:05:30;12.00;;;2.00;;
37655;SDS011;23498;50.958;3.124;2023-03-23T16:07:56;9.95;;;1.98;;
37655;SDS011;23498;50.958;3.124;2023-03-23T16:10:23;7.70;;;1.90;;
37655;SDS011;23498;50.958;3.124;2023-03-23T16:12:49;6.68;;;1.50;;
37655;SDS011;23498;50.958;3.124;2023-03-23T16:15:16;7.90;;;1.80;;
37655;SDS011;23498;50.958;3.124;2023-03-23T16:17:42;7.57;;;1.90;;
37655;SDS011;23498;50.958;3.124;2023-03-23T16:20:12;7.45;;;1.73;;
37655;SDS011;23498;50.958;3.124;2023-03-23T16:22:38;6.15;;;1.90;;
37655;SDS011;23498;50.958;3.124;2023-03-23T16:25:05;9.38;;;2.10;;
37655;SDS011;23498;50.958;3.124;2023-03-23T16:27:31;8.55;;;1.98;;
37655;SDS011;23498;50.958;3.124;2023-03-23T16:29:57;6.93;;;1.83;;
37655;SDS011;23498;50.958;3.124;2023-03-23T16:32:24;9.23;;;2.25;;
37655;SDS011;23498;50.958;3.124;2023-03-23T16:34:50;10.80;;;2.00;;